Time;durP1;ratioP1;P1;durP2;ratioP2;P2;SDS_P1;SDS_P2;PMS_P1;PMS_P2;Temp;Humidity;BMP_temperature;BMP_pressure;BME280_temperature;BME280_humidity;BME280_pressure;Samples;Min_cycle;Max_cycle;Signal;HPM_P1;HPM_P2
2023/06/26 00:00:00;;;;;;;9.57;4.82;;;22.20;63.70;;;;;;5118886;28;20047;-69
2023/06/26 00:02:27;;;;;;;5.75;4.30;;;22.20;63.90;;;;;;5119706;28;20020;-68
2023/06/26 00:04:53;;;;;;;6.95;4.28;;;22.20;63.90;;;;;;5119164;28;20065;-67
2023/06/26 00:07:21;;;;;;;7.50;3.95;;;22.20;64.00;;;;;;5119299;28;20136;-70
2023/06/26 00:09:47;;;;;;;7.93;4.35;;;22.20;64.00;;;;;;5119489;28;20024;-70
2023/06/26 00:12:13;;;;;;;6.68;4.35;;;22.20;64.10;;;;;;5119001;28;20469;-69
2023/06/26 00:14:39;;;;;;;7.57;4.20;;;22.20;64.20;;;;;;5118928;28;20028;-68
2023/06/26 00:17:05;;;;;;;5.88;4.18;;;22.20;64.30;;;;;;5119147;28;20040;-70
2023/06/26 00:19:31;;;;;;;8.48;5.05;;;22.20;64.30;;;;;;5118688;28;20487;-70
2023/06/26 00:21:57;;;;;;;9.82;5.95;;;22.10;64.40;;;;;;5118666;28;20103;-67
2023/06/26 00:24:23;;;;;;;9.13;5.90;;;22.10;64.80;;;;;;5118824;27;20094;-70
2023/06/26 00:26:50;;;;;;;7.32;5.00;;;22.00;65.50;;;;;;5119022;28;20012;-69
2023/06/26 00:29:16;;;;;;;8.23;4.40;;;21.90;65.40;;;;;;5118565;28;20437;-69
2023/06/26 00:31:42;;;;;;;6.60;4.40;;;21.90;65.00;;;;;;5118587;28;20016;-69
2023/06/26 00:34:08;;;;;;;8.55;4.50;;;21.80;65.10;;;;;;5118636;28;20103;-71
2023/06/26 00:36:36;;;;;;;8.75;5.78;;;21.80;65.30;;;;;;5118761;28;20027;-68
2023/06/26 00:39:03;;;;;;;9.60;4.78;;;21.80;65.90;;;;;;5118375;28;20031;-69
2023/06/26 00:41:29;;;;;;;6.05;4.15;;;21.70;65.90;;;;;;5118279;28;20046;-70
2023/06/26 00:43:55;;;;;;;8.15;5.07;;;21.70;65.40;;;;;;5118647;28;20027;-70
2023/06/26 00:46:21;;;;;;;8.73;5.03;;;21.70;65.50;;;;;;5118605;28;20411;-68
2023/06/26 00:48:49;;;;;;;8.98;4.47;;;21.70;66.00;;;;;;5118460;28;20020;-69
2023/06/26 00:51:15;;;;;;;8.27;4.72;;;21.60;65.80;;;;;;5118599;28;20035;-70
2023/06/26 00:53:43;;;;;;;6.68;4.45;;;21.60;65.80;;;;;;5118279;28;20043;-70
2023/06/26 00:56:09;;;;;;;8.73;4.18;;;21.60;65.80;;;;;;5118094;28;20111;-68
2023/06/26 00:58:35;;;;;;;7.97;4.30;;;21.60;65.80;;;;;;5117155;28;20048;-69
2023/06/26 01:01:01;;;;;;;6.82;3.92;;;21.60;65.90;;;;;;5118275;28;20399;-69
2023/06/26 01:03:27;;;;;;;8.60;4.10;;;21.60;66.00;;;;;;5120043;28;20047;-67
2023/06/26 01:05:56;;;;;;;7.22;3.95;;;21.50;65.90;;;;;;5122027;27;20020;-68
2023/06/26 01:08:23;;;;;;;6.55;4.25;;;21.50;65.90;;;;;;5120883;28;20365;-69
2023/06/26 01:10:49;;;;;;;7.88;4.40;;;21.50;66.00;;;;;;5119249;28;20023;-68
2023/06/26 01:13:17;;;;;;;8.43;4.40;;;21.50;66.40;;;;;;5118325;28;20148;-70
2023/06/26 01:15:43;;;;;;;8.18;4.57;;;21.50;66.60;;;;;;5116737;28;20069;-68
2023/06/26 01:18:09;;;;;;;8.05;4.47;;;21.50;66.70;;;;;;5117643;28;20444;-68
2023/06/26 01:20:39;;;;;;;5.93;4.00;;;21.40;66.60;;;;;;5117590;28;20030;-70
2023/06/26 01:23:29;;;;;;;8.00;4.85;;;21.40;66.60;;;;;;5117627;28;20546;-70
2023/06/26 01:26:07;;;;;;;8.90;5.65;;;21.40;67.00;;;;;;5117878;28;20031;-67
2023/06/26 01:31:02;;;;;;;8.18;5.20;;;21.40;66.70;;;;;;5118268;28;20444;-70
2023/06/26 01:33:28;;;;;;;7.32;4.70;;;21.40;66.90;;;;;;5116822;28;20031;-71
2023/06/26 01:35:55;;;;;;;11.35;5.82;;;21.40;66.90;;;;;;5117413;28;20099;-67
2023/06/26 01:38:25;;;;;;;7.72;4.68;;;21.40;67.00;;;;;;5117280;28;20031;-69
2023/06/26 01:40:52;;;;;;;10.45;5.47;;;21.30;67.10;;;;;;5117529;28;20102;-68
2023/06/26 01:43:45;;;;;;;8.95;4.90;;;21.30;67.20;;;;;;5117241;28;20354;-70
2023/06/26 01:46:34;;;;;;;8.77;5.07;;;21.40;67.20;;;;;;5117175;28;20024;-69
2023/06/26 01:49:31;;;;;;;8.95;5.03;;;21.30;67.80;;;;;;5105080;28;20039;-69
2023/06/26 01:52:26;;;;;;;8.40;5.50;;;21.30;67.40;;;;;;5117398;28;20341;-68
2023/06/26 01:55:14;;;;;;;7.68;4.30;;;21.20;68.10;;;;;;5117283;28;20027;-69
2023/06/26 01:57:41;;;;;;;9.20;4.32;;;21.10;67.60;;;;;;5116742;28;20461;-68
2023/06/26 02:00:11;;;;;;;7.30;4.75;;;21.10;67.50;;;;;;5114659;28;20477;-71
2023/06/26 02:02:55;;;;;;;11.38;4.95;;;21.00;67.70;;;;;;5116734;28;20047;-68
2023/06/26 02:05:23;;;;;;;11.10;5.15;;;21.00;67.70;;;;;;5117070;28;20020;-69
2023/06/26 02:07:49;;;;;;;12.32;5.25;;;21.00;67.90;;;;;;5116671;28;20039;-70
2023/06/26 02:10:15;;;;;;;9.23;4.97;;;20.90;68.30;;;;;;5116684;28;20019;-69
2023/06/26 02:12:41;;;;;;;7.60;4.38;;;20.90;68.50;;;;;;5116666;28;20026;-69
2023/06/26 02:15:08;;;;;;;6.97;4.30;;;20.90;68.40;;;;;;5116548;28;20023;-68
2023/06/26 02:17:34;;;;;;;8.90;4.85;;;20.90;68.60;;;;;;5116498;28;20380;-70
2023/06/26 02:20:00;;;;;;;8.13;4.57;;;20.80;68.70;;;;;;5116185;28;20438;-68
2023/06/26 02:22:28;;;;;;;9.95;4.60;;;20.90;68.80;;;;;;5116915;28;20032;-68
2023/06/26 02:24:54;;;;;;;7.57;4.50;;;20.80;69.10;;;;;;5116380;28;20471;-68
2023/06/26 02:27:20;;;;;;;7.22;4.38;;;20.80;69.20;;;;;;5116612;28;20179;-70
2023/06/26 02:29:46;;;;;;;7.97;4.60;;;20.80;69.00;;;;;;5116816;28;20121;-69
2023/06/26 02:32:12;;;;;;;10.70;4.50;;;20.80;68.90;;;;;;5116223;28;20027;-69
2023/06/26 02:34:38;;;;;;;6.15;4.05;;;20.80;68.70;;;;;;5116275;28;20034;-68
2023/06/26 02:37:07;;;;;;;5.45;3.55;;;20.80;68.50;;;;;;5116443;28;20028;-69
2023/06/26 02:39:50;;;;;;;5.72;3.92;;;20.80;68.30;;;;;;5115754;28;20111;-68
2023/06/26 02:42:16;;;;;;;7.35;3.88;;;20.80;68.10;;;;;;5116626;28;20119;-69
2023/06/26 02:44:42;;;;;;;6.25;3.65;;;20.80;68.30;;;;;;5116119;28;20019;-69
2023/06/26 02:47:09;;;;;;;7.15;3.83;;;20.80;68.30;;;;;;5116298;28;20110;-68
2023/06/26 02:49:35;;;;;;;4.97;3.40;;;20.80;68.50;;;;;;5115976;28;20011;-70
2023/06/26 02:52:00;;;;;;;5.70;3.50;;;20.70;68.40;;;;;;5116272;28;20038;-71
2023/06/26 02:54:27;;;;;;;5.88;3.38;;;20.70;68.20;;;;;;5116241;28;20031;-69
2023/06/26 02:56:53;;;;;;;6.57;3.47;;;20.70;68.30;;;;;;5115289;28;20020;-69
2023/06/26 02:59:18;;;;;;;7.53;3.40;;;20.70;68.30;;;;;;5115485;28;20488;-68
2023/06/26 03:01:44;;;;;;;6.20;3.80;;;20.70;68.30;;;;;;5115713;28;20031;-69
2023/06/26 03:04:10;;;;;;;4.25;3.45;;;20.70;68.30;;;;;;5116328;27;20020;-69
2023/06/26 03:06:37;;;;;;;10.00;3.60;;;20.70;68.40;;;;;;5116232;28;20106;-69
2023/06/26 03:09:03;;;;;;;6.18;3.50;;;20.60;68.50;;;;;;5115716;28;20020;-70
2023/06/26 03:11:29;;;;;;;6.88;3.85;;;20.60;68.40;;;;;;5115610;28;20027;-70
2023/06/26 03:13:55;;;;;;;6.88;4.05;;;20.60;68.50;;;;;;5115944;28;20031;-69
2023/06/26 03:16:21;;;;;;;7.30;3.63;;;20.60;68.40;;;;;;5116136;28;20084;-68
2023/06/26 03:18:47;;;;;;;6.00;4.13;;;20.70;68.50;;;;;;5115447;28;20031;-70
2023/06/26 03:21:13;;;;;;;8.90;5.03;;;20.70;68.40;;;;;;5115665;28;20023;-70
2023/06/26 03:23:39;;;;;;;8.02;4.18;;;20.70;68.50;;;;;;5115464;28;20353;-70
2023/06/26 03:26:05;;;;;;;11.30;4.82;;;20.60;68.90;;;;;;5115501;28;20083;-68
2023/06/26 03:28:31;;;;;;;10.30;5.47;;;20.50;69.30;;;;;;5115458;28;20019;-70
2023/06/26 03:30:59;;;;;;;10.13;5.00;;;20.50;69.30;;;;;;5118046;28;20031;-70
2023/06/26 03:33:25;;;;;;;8.15;4.93;;;20.60;69.20;;;;;;5120199;28;20073;-71
2023/06/26 03:35:52;;;;;;;8.23;4.72;;;20.60;69.10;;;;;;5119656;28;20031;-69
2023/06/26 03:38:17;;;;;;;9.10;5.43;;;20.60;68.90;;;;;;5119524;28;20477;-68
2023/06/26 03:40:43;;;;;;;7.38;4.70;;;20.70;68.50;;;;;;5119512;28;20216;-69
2023/06/26 03:43:09;;;;;;;8.02;4.60;;;20.70;68.50;;;;;;5119809;28;20053;-70
2023/06/26 03:45:36;;;;;;;6.90;4.43;;;20.80;68.10;;;;;;5119479;28;20031;-69
2023/06/26 03:48:02;;;;;;;8.45;4.63;;;20.80;68.20;;;;;;5120017;27;20092;-68
2023/06/26 03:50:28;;;;;;;7.75;4.25;;;20.80;67.80;;;;;;5119305;28;20407;-69
2023/06/26 03:52:54;;;;;;;8.30;4.20;;;20.80;67.70;;;;;;5119649;28;20028;-69
2023/06/26 03:55:22;;;;;;;8.63;4.70;;;20.90;67.70;;;;;;5119240;28;20051;-69
2023/06/26 03:57:48;;;;;;;6.57;4.05;;;20.90;67.70;;;;;;5119500;28;20027;-69
2023/06/26 04:00:14;;;;;;;5.88;4.00;;;20.90;67.70;;;;;;5118924;28;20058;-68
2023/06/26 04:02:40;;;;;;;6.65;4.00;;;21.00;67.70;;;;;;5119666;28;20016;-69
2023/06/26 04:05:06;;;;;;;6.70;4.13;;;21.00;67.60;;;;;;5118046;28;20032;-68
2023/06/26 04:07:33;;;;;;;6.93;4.15;;;21.10;67.50;;;;;;5118982;28;20016;-69
2023/06/26 04:10:00;;;;;;;6.05;4.07;;;21.20;67.40;;;;;;5119262;28;20055;-71
2023/06/26 04:12:26;;;;;;;7.13;3.75;;;21.20;67.30;;;;;;5119173;28;20334;-69
2023/06/26 04:14:52;;;;;;;6.38;4.30;;;21.30;67.20;;;;;;5118978;28;20030;-70
2023/06/26 04:17:17;;;;;;;6.50;4.22;;;21.40;67.00;;;;;;5117851;28;20051;-71
2023/06/26 04:19:43;;;;;;;6.28;4.00;;;21.50;66.80;;;;;;5119343;28;20027;-70
2023/06/26 04:22:09;;;;;;;6.68;4.20;;;21.60;66.60;;;;;;5117711;28;20401;-70
2023/06/26 04:24:37;;;;;;;7.75;4.00;;;21.80;66.40;;;;;;5118710;28;20061;-68
2023/06/26 04:27:05;;;;;;;6.72;3.88;;;21.90;66.10;;;;;;5118566;28;20441;-70
2023/06/26 04:29:31;;;;;;;7.63;4.65;;;22.00;66.00;;;;;;5118558;28;20231;-70
2023/06/26 04:31:57;;;;;;;6.68;4.30;;;22.20;65.90;;;;;;5118538;28;20038;-70
2023/06/26 04:34:27;;;;;;;9.23;4.57;;;22.40;65.70;;;;;;5118556;28;20027;-68
2023/06/26 04:36:54;;;;;;;5.70;4.28;;;22.50;65.30;;;;;;5118790;28;20066;-70
2023/06/26 04:39:20;;;;;;;7.68;4.72;;;22.70;65.00;;;;;;5118352;28;20044;-69
2023/06/26 04:41:46;;;;;;;6.30;4.40;;;22.90;64.80;;;;;;5118825;28;20116;-69
2023/06/26 04:44:12;;;;;;;7.65;4.35;;;23.10;64.40;;;;;;5118584;28;20030;-71
2023/06/26 04:46:41;;;;;;;6.90;4.55;;;23.40;64.00;;;;;;5118850;28;20030;-69
2023/06/26 04:49:08;;;;;;;7.75;5.05;;;23.60;63.80;;;;;;5118477;28;20027;-70
2023/06/26 04:51:40;;;;;;;7.00;4.80;;;23.80;63.80;;;;;;5118505;27;20074;-70
2023/06/26 04:54:08;;;;;;;9.95;4.78;;;24.20;64.00;;;;;;5118507;27;20030;-72
2023/06/26 04:56:34;;;;;;;6.90;4.03;;;25.00;63.50;;;;;;5118104;27;20031;-68
2023/06/26 04:59:00;;;;;;;8.05;4.75;;;26.10;61.90;;;;;;5117965;28;20043;-70
2023/06/26 05:01:29;;;;;;;8.05;5.25;;;27.40;59.70;;;;;;5118292;28;20438;-68
2023/06/26 05:03:56;;;;;;;8.52;4.45;;;28.50;57.30;;;;;;5117954;28;20047;-71
2023/06/26 05:06:22;;;;;;;7.00;4.65;;;29.70;55.00;;;;;;5117968;28;20027;-69
2023/06/26 05:08:48;;;;;;;6.35;4.32;;;30.70;53.00;;;;;;5117855;28;20026;-69
2023/06/26 05:11:14;;;;;;;5.50;4.25;;;31.70;51.20;;;;;;5118359;28;20106;-70
2023/06/26 05:13:40;;;;;;;6.68;4.30;;;32.60;49.50;;;;;;5117789;28;20349;-70
2023/06/26 05:16:09;;;;;;;8.48;5.15;;;33.40;48.00;;;;;;5117782;28;20039;-69
2023/06/26 05:18:37;;;;;;;8.48;4.43;;;34.30;46.50;;;;;;5117677;28;20149;-70
2023/06/26 05:21:04;;;;;;;7.68;4.40;;;35.00;45.10;;;;;;5117532;28;20456;-71
2023/06/26 05:23:32;;;;;;;9.38;4.10;;;35.70;44.00;;;;;;5117611;28;20449;-70
2023/06/26 05:25:58;;;;;;;9.98;4.60;;;36.40;42.60;;;;;;5117794;28;20020;-70
2023/06/26 05:28:27;;;;;;;10.85;4.53;;;37.10;41.20;;;;;;5117937;28;20016;-68
2023/06/26 05:30:54;;;;;;;7.93;4.07;;;37.70;40.20;;;;;;5117425;28;20096;-69
2023/06/26 05:33:23;;;;;;;9.65;4.93;;;38.40;39.10;;;;;;5117675;28;20019;-69
2023/06/26 05:35:52;;;;;;;7.93;4.25;;;39.00;38.10;;;;;;5117856;28;20031;-69
2023/06/26 05:38:18;;;;;;;8.15;4.25;;;39.60;37.50;;;;;;5117221;28;20100;-73
2023/06/26 05:40:56;;;;;;;7.57;4.03;;;40.20;36.80;;;;;;5117125;28;20406;-70
2023/06/26 05:43:22;;;;;;;7.05;4.20;;;40.70;36.10;;;;;;5117751;28;20358;-71
2023/06/26 05:45:49;;;;;;;6.18;3.80;;;41.30;35.40;;;;;;5117440;28;20024;-71
2023/06/26 05:48:15;;;;;;;6.20;4.05;;;41.90;34.70;;;;;;5117347;28;20106;-71
2023/06/26 05:50:42;;;;;;;4.95;3.75;;;42.30;34.20;;;;;;5117598;28;20051;-72
2023/06/26 05:53:09;;;;;;;5.82;3.83;;;42.90;33.50;;;;;;5116398;28;20028;-73
2023/06/26 05:55:36;;;;;;;5.80;3.72;;;43.40;32.90;;;;;;5116988;28;20027;-72
2023/06/26 05:58:02;;;;;;;5.90;4.10;;;43.80;32.20;;;;;;5116992;28;20031;-72
2023/06/26 06:00:29;;;;;;;5.30;3.95;;;44.40;31.40;;;;;;5116502;28;20054;-71
2023/06/26 06:02:57;;;;;;;7.60;4.10;;;44.70;31.00;;;;;;5116787;28;20019;-72
2023/06/26 06:05:23;;;;;;;7.20;3.90;;;44.90;30.60;;;;;;5116833;28;20023;-69
2023/06/26 06:07:50;;;;;;;7.72;4.00;;;45.30;30.30;;;;;;5116713;28;20043;-71
2023/06/26 06:10:16;;;;;;;5.72;3.83;;;45.70;30.00;;;;;;5116578;28;20042;-70
2023/06/26 06:12:42;;;;;;;7.30;4.00;;;46.10;29.60;;;;;;5116676;28;20022;-71
2023/06/26 06:15:08;;;;;;;7.50;4.65;;;46.40;29.20;;;;;;5115496;28;20026;-70
2023/06/26 06:17:34;;;;;;;6.45;3.90;;;46.50;29.00;;;;;;5116999;28;20024;-72
2023/06/26 06:20:00;;;;;;;6.20;4.78;;;46.70;28.60;;;;;;5116905;27;20016;-71
2023/06/26 06:22:26;;;;;;;7.10;4.70;;;46.70;28.10;;;;;;5116522;28;20361;-72
2023/06/26 06:24:55;;;;;;;5.47;4.70;;;46.90;27.30;;;;;;5116866;28;20023;-71
2023/06/26 06:27:20;;;;;;;7.88;5.22;;;47.10;26.00;;;;;;5116274;28;20016;-70
2023/06/26 06:29:46;;;;;;;8.88;6.45;;;47.40;25.60;;;;;;5116153;28;20141;-70
2023/06/26 06:32:12;;;;;;;8.32;5.93;;;47.20;24.90;;;;;;5116563;28;20024;-72
2023/06/26 06:34:40;;;;;;;9.02;6.07;;;46.00;24.20;;;;;;5116228;28;20110;-70
2023/06/26 06:37:06;;;;;;;7.78;6.10;;;46.00;24.30;;;;;;5116133;28;20043;-70
2023/06/26 06:39:35;;;;;;;8.32;6.28;;;45.80;24.10;;;;;;5116309;28;20107;-71
2023/06/26 06:42:01;;;;;;;9.15;6.22;;;44.40;24.60;;;;;;5116033;28;20406;-70
2023/06/26 06:44:30;;;;;;;11.23;6.07;;;42.90;25.60;;;;;;5115966;28;20453;-70
2023/06/26 06:46:56;;;;;;;9.13;6.55;;;41.40;27.00;;;;;;5115944;28;20036;-70
2023/06/26 06:49:22;;;;;;;10.35;6.82;;;40.00;28.60;;;;;;5115936;28;20480;-70
2023/06/26 06:51:50;;;;;;;10.23;6.40;;;38.30;30.30;;;;;;5114843;28;20031;-70
2023/06/26 06:54:17;;;;;;;8.15;6.07;;;36.80;32.10;;;;;;5116399;28;20034;-69
2023/06/26 06:56:45;;;;;;;10.07;6.20;;;35.90;33.60;;;;;;5114979;28;20034;-69
2023/06/26 06:59:11;;;;;;;9.82;6.45;;;35.20;34.70;;;;;;5115447;28;20052;-70
2023/06/26 07:01:37;;;;;;;8.60;6.28;;;34.70;35.60;;;;;;5116292;28;20391;-69
2023/06/26 07:04:03;;;;;;;9.00;5.95;;;34.10;36.60;;;;;;5115918;28;20027;-69
2023/06/26 07:06:30;;;;;;;10.65;6.75;;;33.70;37.20;;;;;;5115112;28;20022;-70
2023/06/26 07:08:56;;;;;;;9.43;6.30;;;33.50;37.80;;;;;;5116014;28;20027;-69
2023/06/26 07:11:22;;;;;;;10.00;7.22;;;33.20;38.20;;;;;;5116263;28;20072;-71
2023/06/26 07:13:48;;;;;;;11.18;6.65;;;33.00;38.80;;;;;;5115650;28;20490;-70
2023/06/26 07:16:16;;;;;;;10.30;5.82;;;32.90;39.10;;;;;;5115639;28;20027;-70
2023/06/26 07:18:43;;;;;;;8.32;5.88;;;32.80;39.40;;;;;;5115536;28;20035;-69
2023/06/26 07:21:09;;;;;;;9.35;5.90;;;32.70;39.70;;;;;;5115756;28;20039;-69
2023/06/26 07:23:35;;;;;;;8.65;5.88;;;32.70;39.80;;;;;;5115521;28;20030;-71
2023/06/26 07:26:04;;;;;;;9.63;6.55;;;32.60;40.00;;;;;;5115987;28;20094;-72
2023/06/26 07:28:30;;;;;;;8.98;6.30;;;32.60;39.90;;;;;;5115953;28;20047;-72
2023/06/26 07:30:56;;;;;;;9.85;6.22;;;32.40;39.90;;;;;;5115415;28;20110;-70
2023/06/26 07:33:24;;;;;;;9.40;6.93;;;32.40;39.90;;;;;;5115732;28;20033;-70
2023/06/26 07:35:50;;;;;;;10.05;6.20;;;32.40;39.90;;;;;;5115929;28;20023;-71
2023/06/26 07:38:18;;;;;;;8.65;6.35;;;32.20;40.20;;;;;;5115368;28;20042;-70
2023/06/26 07:40:44;;;;;;;10.13;6.97;;;32.10;40.60;;;;;;5115839;28;20338;-73
2023/06/26 07:43:15;;;;;;;10.70;6.60;;;32.10;41.00;;;;;;5115429;28;20039;-70
2023/06/26 07:45:41;;;;;;;9.80;5.93;;;31.90;40.80;;;;;;5115360;28;20441;-69
2023/06/26 07:48:08;;;;;;;10.20;6.55;;;31.90;41.10;;;;;;5115336;28;20103;-71
2023/06/26 07:50:35;;;;;;;8.10;5.93;;;31.80;40.90;;;;;;5115280;28;20020;-72
2023/06/26 07:53:01;;;;;;;10.20;7.22;;;31.70;41.20;;;;;;5115294;28;20024;-70
2023/06/26 07:55:26;;;;;;;8.90;6.03;;;31.70;41.40;;;;;;5115745;28;20027;-71
2023/06/26 07:57:55;;;;;;;8.55;5.90;;;31.80;41.30;;;;;;5115492;28;20441;-71
2023/06/26 08:00:23;;;;;;;9.63;6.50;;;31.90;41.40;;;;;;5114974;28;20469;-71
2023/06/26 08:02:49;;;;;;;10.20;6.32;;;32.00;41.10;;;;;;5115672;28;20027;-69
2023/06/26 08:05:15;;;;;;;10.23;7.50;;;32.00;40.90;;;;;;5114165;28;20020;-73
2023/06/26 08:07:42;;;;;;;8.80;6.47;;;31.90;41.00;;;;;;5115184;28;20392;-72
2023/06/26 08:10:09;;;;;;;9.43;6.05;;;31.80;41.30;;;;;;5115020;28;20027;-71
2023/06/26 08:12:40;;;;;;;8.60;6.35;;;31.90;41.40;;;;;;5115368;28;20077;-72
2023/06/26 08:15:09;;;;;;;11.95;6.82;;;32.00;41.20;;;;;;5115016;28;20035;-70
2023/06/26 08:17:36;;;;;;;7.93;5.97;;;32.10;41.10;;;;;;5117929;28;20039;-72
2023/06/26 08:20:02;;;;;;;10.55;6.22;;;32.20;41.10;;;;;;5119094;28;20035;-69
2023/06/26 08:22:30;;;;;;;9.02;5.95;;;32.20;40.60;;;;;;5118815;28;20032;-71
2023/06/26 08:24:57;;;;;;;9.02;5.93;;;32.20;40.80;;;;;;5119047;28;20020;-70
2023/06/26 08:27:23;;;;;;;11.07;6.60;;;32.20;41.00;;;;;;5118729;28;20094;-72
2023/06/26 08:29:51;;;;;;;9.57;6.38;;;32.30;40.70;;;;;;5118672;28;20047;-72
2023/06/26 08:32:19;;;;;;;8.35;5.88;;;32.20;40.60;;;;;;5118865;27;20035;-72
2023/06/26 08:34:45;;;;;;;9.98;5.60;;;32.10;40.90;;;;;;5119108;28;20038;-71
2023/06/26 08:37:11;;;;;;;8.10;5.47;;;32.20;40.90;;;;;;5119054;28;20032;-70
2023/06/26 08:39:37;;;;;;;9.20;6.07;;;32.30;40.80;;;;;;5117566;28;20020;-70
2023/06/26 08:42:06;;;;;;;8.93;5.90;;;32.30;40.20;;;;;;5118964;28;20046;-71
2023/06/26 08:44:34;;;;;;;9.85;5.68;;;32.30;40.30;;;;;;5119007;28;20042;-69
2023/06/26 08:47:01;;;;;;;8.93;5.78;;;32.20;40.20;;;;;;5118290;28;20035;-72
2023/06/26 08:49:34;;;;;;;8.88;5.32;;;32.30;40.30;;;;;;5118523;28;20119;-69
2023/06/26 08:52:12;;;;;;;8.52;5.38;;;32.40;40.30;;;;;;5118534;28;20102;-69
2023/06/26 08:54:47;;;;;;;10.85;5.97;;;32.40;40.40;;;;;;5117689;28;20449;-73
2023/06/26 08:57:18;;;;;;;8.48;5.68;;;32.30;40.30;;;;;;5117231;28;20477;-69
2023/06/26 08:59:45;;;;;;;7.38;5.57;;;32.40;40.40;;;;;;5117863;27;20122;-70
2023/06/26 09:02:14;;;;;;;10.52;5.20;;;32.20;40.40;;;;;;5118530;28;20057;-71
2023/06/26 09:04:40;;;;;;;9.27;6.10;;;32.20;40.70;;;;;;5118565;28;20024;-73
2023/06/26 09:07:07;;;;;;;9.68;5.45;;;32.20;40.90;;;;;;5117960;28;20028;-69
2023/06/26 09:09:36;;;;;;;10.25;6.43;;;32.20;40.70;;;;;;5117812;28;20055;-72
2023/06/26 09:12:03;;;;;;;8.27;5.22;;;32.10;40.90;;;;;;5117912;28;20062;-70
2023/06/26 09:14:30;;;;;;;8.40;5.28;;;32.10;40.90;;;;;;5116840;28;20031;-69
2023/06/26 09:16:56;;;;;;;8.35;5.25;;;32.10;41.00;;;;;;5113070;28;20452;-73
2023/06/26 09:19:23;;;;;;;8.45;5.68;;;32.30;41.20;;;;;;5117969;28;20073;-71
2023/06/26 09:21:51;;;;;;;9.02;5.65;;;32.40;41.30;;;;;;5117851;28;20024;-71
2023/06/26 09:24:18;;;;;;;10.48;5.95;;;32.60;41.30;;;;;;5117460;28;20020;-69
2023/06/26 09:26:44;;;;;;;8.63;5.75;;;32.60;41.20;;;;;;5117857;28;20024;-71
2023/06/26 09:29:13;;;;;;;9.35;5.88;;;32.60;41.10;;;;;;5115696;28;20020;-71
2023/06/26 09:31:40;;;;;;;9.23;5.55;;;32.70;41.00;;;;;;5116638;28;20072;-71
2023/06/26 09:34:06;;;;;;;7.47;5.20;;;32.70;40.90;;;;;;5116470;28;20060;-73
2023/06/26 09:36:34;;;;;;;7.60;5.70;;;32.70;40.90;;;;;;5117442;28;20051;-70
2023/06/26 09:39:02;;;;;;;10.40;6.30;;;32.70;41.00;;;;;;5116256;28;20039;-74
2023/06/26 09:41:38;;;;;;;9.70;6.00;;;32.80;40.80;;;;;;5117457;28;20035;-69
2023/06/26 09:44:14;;;;;;;10.93;5.90;;;32.70;41.00;;;;;;5117110;28;20020;-70
2023/06/26 09:46:46;;;;;;;8.68;5.95;;;32.60;41.00;;;;;;5117692;28;20028;-71
2023/06/26 09:49:12;;;;;;;9.63;6.22;;;32.70;41.40;;;;;;5117038;28;20091;-70
2023/06/26 09:51:42;;;;;;;9.52;5.90;;;32.80;41.30;;;;;;5117368;27;20445;-69
2023/06/26 09:54:11;;;;;;;7.47;5.47;;;32.80;41.10;;;;;;5117077;28;20024;-71
2023/06/26 09:56:38;;;;;;;10.18;5.57;;;32.80;41.10;;;;;;5117438;28;20496;-71
2023/06/26 09:59:05;;;;;;;8.07;5.18;;;32.90;41.10;;;;;;5116196;27;20047;-72
2023/06/26 10:01:32;;;;;;;8.95;5.80;;;32.90;40.90;;;;;;5116837;28;20019;-71
2023/06/26 10:03:58;;;;;;;10.05;5.93;;;32.90;41.10;;;;;;5115813;28;20031;-72
2023/06/26 10:06:41;;;;;;;10.05;5.85;;;32.80;40.70;;;;;;5116175;28;20023;-73
2023/06/26 10:09:08;;;;;;;9.52;5.35;;;32.60;40.70;;;;;;5116845;28;20028;-72
2023/06/26 10:12:04;;;;;;;7.07;5.25;;;32.50;41.00;;;;;;5115746;28;20023;-70
2023/06/26 10:14:37;;;;;;;7.97;5.07;;;32.50;41.10;;;;;;5115709;28;20030;-70
2023/06/26 10:17:10;;;;;;;7.15;5.18;;;32.60;41.40;;;;;;5117188;28;20034;-73
2023/06/26 10:19:40;;;;;;;8.18;5.07;;;32.70;41.60;;;;;;5115481;28;20026;-71
2023/06/26 10:22:07;;;;;;;7.22;5.03;;;32.70;41.40;;;;;;5116701;28;20035;-72
2023/06/26 10:24:35;;;;;;;9.10;5.10;;;32.70;41.30;;;;;;5116492;28;20091;-70
2023/06/26 10:27:09;;;;;;;6.53;4.45;;;32.60;41.30;;;;;;5116369;28;20395;-72
2023/06/26 10:29:36;;;;;;;8.93;5.13;;;32.60;41.30;;;;;;5116851;28;20103;-70
2023/06/26 10:32:04;;;;;;;6.72;4.57;;;32.70;41.40;;;;;;5116295;28;20365;-72
2023/06/26 10:34:31;;;;;;;9.05;5.57;;;32.70;41.50;;;;;;5115273;28;20073;-72
2023/06/26 10:37:04;;;;;;;7.40;5.22;;;32.90;41.30;;;;;;5115361;28;20465;-70
2023/06/26 10:39:49;;;;;;;9.20;5.30;;;32.80;41.00;;;;;;5116573;28;20020;-71
2023/06/26 10:42:19;;;;;;;9.57;4.90;;;32.70;41.00;;;;;;5116017;28;20118;-70
2023/06/26 10:44:46;;;;;;;8.65;5.05;;;32.60;41.30;;;;;;5116566;28;20103;-71
2023/06/26 10:47:35;;;;;;;6.35;4.30;;;32.60;41.20;;;;;;5115068;28;20024;-72
2023/06/26 10:50:37;;;;;;;6.93;4.50;;;32.60;41.10;;;;;;5115908;28;20020;-70
2023/06/26 10:53:33;;;;;;;6.40;4.63;;;32.70;41.30;;;;;;5017243;28;20045;-70
2023/06/26 10:56:00;;;;;;;7.25;4.90;;;32.80;41.00;;;;;;5033586;28;20045;-71
2023/06/26 10:58:40;;;;;;;8.52;5.43;;;32.80;41.20;;;;;;5033614;28;20499;-71
2023/06/26 11:01:15;;;;;;;7.05;5.10;;;32.90;41.00;;;;;;5033543;28;20103;-72
2023/06/26 11:04:05;;;;;;;7.57;5.05;;;32.80;41.10;;;;;;5017057;28;20037;-71
2023/06/26 11:06:34;;;;;;;8.32;4.95;;;32.80;41.00;;;;;;5024055;28;20037;-69
2023/06/26 11:09:05;;;;;;;6.97;5.15;;;32.80;41.00;;;;;;5016750;28;20105;-71
2023/06/26 11:11:54;;;;;;;7.97;5.40;;;32.80;41.20;;;;;;5016910;28;20037;-69
2023/06/26 11:14:22;;;;;;;7.25;5.40;;;32.80;41.10;;;;;;5033429;28;20116;-69
2023/06/26 11:16:49;;;;;;;8.82;6.00;;;32.90;41.20;;;;;;5033491;28;20049;-72
2023/06/26 11:19:18;;;;;;;6.43;4.90;;;32.90;41.10;;;;;;5016965;28;20025;-69
2023/06/26 11:21:45;;;;;;;8.57;5.45;;;32.90;41.20;;;;;;5016651;28;20475;-70
2023/06/26 11:24:12;;;;;;;7.43;5.35;;;33.00;41.40;;;;;;5033644;28;20131;-69
2023/06/26 11:26:39;;;;;;;7.90;5.32;;;33.10;41.50;;;;;;5033251;28;20407;-72
2023/06/26 11:29:06;;;;;;;9.02;5.82;;;33.10;41.60;;;;;;5067611;28;20445;-70
2023/06/26 11:31:34;;;;;;;8.48;5.40;;;33.20;41.40;;;;;;5115501;28;20038;-71
2023/06/26 11:34:14;;;;;;;9.48;5.47;;;33.20;41.30;;;;;;5115497;28;20054;-71
2023/06/26 11:36:42;;;;;;;6.88;5.05;;;33.30;41.20;;;;;;5114518;28;20028;-70
2023/06/26 11:39:12;;;;;;;7.18;5.10;;;33.30;41.20;;;;;;5115519;28;20061;-71
2023/06/26 11:41:40;;;;;;;8.00;5.30;;;33.40;41.20;;;;;;5115320;28;20028;-70
2023/06/26 11:44:11;;;;;;;8.27;5.65;;;33.40;41.10;;;;;;5114382;28;20039;-70
2023/06/26 11:46:37;;;;;;;8.82;5.40;;;33.40;40.60;;;;;;5114311;28;20545;-70
2023/06/26 11:49:05;;;;;;;8.15;5.35;;;33.40;41.00;;;;;;5115277;28;20112;-72
2023/06/26 11:51:35;;;;;;;9.05;5.65;;;33.50;41.00;;;;;;5116838;28;20027;-71
2023/06/26 11:54:04;;;;;;;7.72;5.30;;;33.40;40.90;;;;;;5119415;28;20039;-69
2023/06/26 11:56:30;;;;;;;9.32;6.13;;;33.50;41.00;;;;;;5118759;28;20027;-69
2023/06/26 11:59:06;;;;;;;9.07;6.18;;;33.50;41.10;;;;;;5119456;28;20073;-72
2023/06/26 12:01:35;;;;;;;6.82;4.78;;;33.50;41.10;;;;;;5119505;27;20023;-71
2023/06/26 12:04:04;;;;;;;7.43;5.18;;;33.50;41.10;;;;;;5119782;28;20437;-71
2023/06/26 12:06:32;;;;;;;6.22;4.93;;;33.50;41.00;;;;;;5118193;28;20034;-70
2023/06/26 12:09:00;;;;;;;7.50;5.57;;;33.50;41.00;;;;;;5119090;28;20062;-72
2023/06/26 12:11:28;;;;;;;10.65;6.07;;;33.50;40.90;;;;;;5119642;27;20023;-69
2023/06/26 12:13:54;;;;;;;9.60;6.40;;;33.50;40.80;;;;;;5119072;28;20023;-72
2023/06/26 12:16:20;;;;;;;9.00;5.95;;;33.30;40.80;;;;;;5119035;28;20031;-73
2023/06/26 12:18:47;;;;;;;9.13;5.18;;;33.20;41.00;;;;;;5119401;28;20069;-73
2023/06/26 12:21:31;;;;;;;8.50;5.88;;;33.10;41.00;;;;;;5118869;28;20027;-68
2023/06/26 12:24:01;;;;;;;7.93;5.80;;;33.00;41.20;;;;;;5119418;28;20508;-72
2023/06/26 12:26:29;;;;;;;8.48;5.85;;;32.90;41.20;;;;;;5118809;28;20023;-71
2023/06/26 12:29:09;;;;;;;8.90;5.68;;;33.00;41.20;;;;;;5118982;28;20084;-74
2023/06/26 12:31:41;;;;;;;7.95;5.80;;;32.90;41.00;;;;;;5119290;28;20020;-73
2023/06/26 12:34:31;;;;;;;8.27;5.80;;;32.90;40.90;;;;;;5119263;28;20068;-72
2023/06/26 12:37:03;;;;;;;8.15;5.93;;;32.90;41.10;;;;;;5118585;28;20027;-71
2023/06/26 12:39:54;;;;;;;7.63;5.13;;;32.90;41.10;;;;;;5118525;28;20446;-73
2023/06/26 12:42:27;;;;;;;9.85;5.47;;;32.90;41.30;;;;;;5118372;28;20365;-70
2023/06/26 12:44:58;;;;;;;7.85;5.43;;;32.90;41.30;;;;;;5118995;28;20024;-71
2023/06/26 12:47:29;;;;;;;11.38;7.38;;;32.90;41.40;;;;;;5118392;28;20080;-71
2023/06/26 12:50:07;;;;;;;8.27;5.93;;;33.00;41.00;;;;;;5118227;28;20451;-72
2023/06/26 12:52:35;;;;;;;8.82;5.80;;;32.90;41.10;;;;;;5118900;28;20057;-74
2023/06/26 12:55:05;;;;;;;8.77;5.50;;;32.90;41.10;;;;;;5118221;28;20033;-73